sensor_id;sensor_type;location;lat;lon;timestamp;P1;durP1;ratioP1;P2;durP2;ratioP2
20393;SDS011;10356;50.544;9.642;2023-01-19T00:01:57;22.93;;;12.47;;
20393;SDS011;10356;50.544;9.642;2023-01-19T00:04:23;29.93;;;14.63;;
20393;SDS011;10356;50.544;9.642;2023-01-19T00:06:49;29.30;;;15.00;;
20393;SDS011;10356;50.544;9.642;2023-01-19T00:09:16;27.07;;;14.03;;
20393;SDS011;10356;50.544;9.642;2023-01-19T00:11:42;31.00;;;15.60;;
20393;SDS011;10356;50.544;9.642;2023-01-19T00:14:10;27.70;;;14.93;;
20393;SDS011;10356;50.544;9.642;2023-01-19T00:16:37;26.47;;;14.73;;
20393;SDS011;10356;50.544;9.642;2023-01-19T00:19:03;27.10;;;12.93;;
20393;SDS011;10356;50.544;9.642;2023-01-19T00:21:30;24.83;;;13.73;;
20393;SDS011;10356;50.544;9.642;2023-01-19T00:23:56;24.50;;;13.43;;
20393;SDS011;10356;50.544;9.642;2023-01-19T00:26:22;28.77;;;13.40;;
20393;SDS011;10356;50.544;9.642;2023-01-19T00:28:49;24.60;;;13.63;;
20393;SDS011;10356;50.544;9.642;2023-01-19T00:31:18;22.80;;;12.57;;
20393;SDS011;10356;50.544;9.642;2023-01-19T00:33:45;23.63;;;12.77;;
20393;SDS011;10356;50.544;9.642;2023-01-19T00:36:13;23.73;;;12.87;;
20393;SDS011;10356;50.544;9.642;2023-01-19T00:38:40;28.30;;;13.03;;
20393;SDS011;10356;50.544;9.642;2023-01-19T00:41:06;31.40;;;13.50;;
20393;SDS011;10356;50.544;9.642;2023-01-19T00:43:32;23.23;;;12.30;;
20393;SDS011;10356;50.544;9.642;2023-01-19T00:45:58;20.73;;;11.57;;
20393;SDS011;10356;50.544;9.642;2023-01-19T00:48:26;24.33;;;12.10;;
20393;SDS011;10356;50.544;9.642;2023-01-19T00:50:52;26.30;;;12.27;;
20393;SDS011;10356;50.544;9.642;2023-01-19T00:53:19;23.67;;;11.80;;
20393;SDS011;10356;50.544;9.642;2023-01-19T00:55:45;24.90;;;12.83;;
20393;SDS011;10356;50.544;9.642;2023-01-19T00:58:11;24.43;;;11.83;;
20393;SDS011;10356;50.544;9.642;2023-01-19T01:00:38;22.40;;;12.17;;
20393;SDS011;10356;50.544;9.642;2023-01-19T01:03:04;23.33;;;12.17;;
20393;SDS011;10356;50.544;9.642;2023-01-19T01:05:32;26.97;;;12.93;;
20393;SDS011;10356;50.544;9.642;2023-01-19T01:07:59;23.07;;;11.97;;
20393;SDS011;10356;50.544;9.642;2023-01-19T01:16:44;26.07;;;12.30;;
20393;SDS011;10356;50.544;9.642;2023-01-19T01:19:11;23.40;;;11.53;;
20393;SDS011;10356;50.544;9.642;2023-01-19T01:21:38;18.17;;;10.77;;
20393;SDS011;10356;50.544;9.642;2023-01-19T01:24:05;21.27;;;11.43;;
20393;SDS011;10356;50.544;9.642;2023-01-19T01:26:32;29.97;;;12.77;;
20393;SDS011;10356;50.544;9.642;2023-01-19T01:28:59;24.60;;;12.13;;
20393;SDS011;10356;50.544;9.642;2023-01-19T01:31:25;22.33;;;11.63;;
20393;SDS011;10356;50.544;9.642;2023-01-19T01:33:52;20.30;;;11.57;;
20393;SDS011;10356;50.544;9.642;2023-01-19T01:36:18;20.73;;;12.00;;
20393;SDS011;10356;50.544;9.642;2023-01-19T01:38:46;23.77;;;12.00;;
20393;SDS011;10356;50.544;9.642;2023-01-19T01:41:13;22.63;;;11.90;;
20393;SDS011;10356;50.544;9.642;2023-01-19T01:43:40;21.00;;;10.90;;
20393;SDS011;10356;50.544;9.642;2023-01-19T01:46:08;21.77;;;11.10;;
20393;SDS011;10356;50.544;9.642;2023-01-19T01:48:35;21.83;;;11.27;;
20393;SDS011;10356;50.544;9.642;2023-01-19T01:51:04;24.77;;;10.90;;
20393;SDS011;10356;50.544;9.642;2023-01-19T01:53:53;18.40;;;10.63;;
20393;SDS011;10356;50.544;9.642;2023-01-19T01:56:27;19.33;;;10.63;;
20393;SDS011;10356;50.544;9.642;2023-01-19T01:58:57;18.60;;;10.57;;
20393;SDS011;10356;50.544;9.642;2023-01-19T02:01:27;24.50;;;12.17;;
20393;SDS011;10356;50.544;9.642;2023-01-19T02:04:11;18.93;;;10.83;;
20393;SDS011;10356;50.544;9.642;2023-01-19T02:06:38;26.37;;;12.83;;
20393;SDS011;10356;50.544;9.642;2023-01-19T02:09:23;22.63;;;12.33;;
20393;SDS011;10356;50.544;9.642;2023-01-19T02:12:11;26.37;;;12.13;;
20393;SDS011;10356;50.544;9.642;2023-01-19T02:14:56;25.83;;;11.37;;
20393;SDS011;10356;50.544;9.642;2023-01-19T02:17:22;21.67;;;11.23;;
20393;SDS011;10356;50.544;9.642;2023-01-19T02:19:49;23.53;;;11.50;;
20393;SDS011;10356;50.544;9.642;2023-01-19T02:22:17;23.03;;;11.23;;
20393;SDS011;10356;50.544;9.642;2023-01-19T02:24:51;21.23;;;10.00;;
20393;SDS011;10356;50.544;9.642;2023-01-19T02:27:18;21.50;;;10.10;;
20393;SDS011;10356;50.544;9.642;2023-01-19T02:29:45;19.07;;;9.83;;
20393;SDS011;10356;50.544;9.642;2023-01-19T02:32:12;23.30;;;9.83;;
20393;SDS011;10356;50.544;9.642;2023-01-19T02:34:38;17.00;;;9.73;;
20393;SDS011;10356;50.544;9.642;2023-01-19T02:37:06;18.70;;;9.40;;
20393;SDS011;10356;50.544;9.642;2023-01-19T02:39:37;18.67;;;10.30;;
20393;SDS011;10356;50.544;9.642;2023-01-19T02:42:08;16.93;;;10.07;;
20393;SDS011;10356;50.544;9.642;2023-01-19T02:44:38;16.77;;;9.47;;
20393;SDS011;10356;50.544;9.642;2023-01-19T02:47:06;18.60;;;9.00;;
20393;SDS011;10356;50.544;9.642;2023-01-19T02:49:33;21.80;;;9.97;;
20393;SDS011;10356;50.544;9.642;2023-01-19T02:52:00;17.83;;;9.17;;
20393;SDS011;10356;50.544;9.642;2023-01-19T02:54:33;17.17;;;9.63;;
20393;SDS011;10356;50.544;9.642;2023-01-19T02:57:13;15.80;;;8.77;;
20393;SDS011;10356;50.544;9.642;2023-01-19T03:00:16;17.57;;;9.10;;
20393;SDS011;10356;50.544;9.642;2023-01-19T03:02:54;18.30;;;9.97;;
20393;SDS011;10356;50.544;9.642;2023-01-19T03:05:39;17.63;;;9.10;;
20393;SDS011;10356;50.544;9.642;2023-01-19T03:08:20;22.27;;;9.50;;
20393;SDS011;10356;50.544;9.642;2023-01-19T03:10:56;19.27;;;8.97;;
20393;SDS011;10356;50.544;9.642;2023-01-19T03:13:30;19.93;;;9.77;;
20393;SDS011;10356;50.544;9.642;2023-01-19T03:16:08;18.70;;;9.10;;
20393;SDS011;10356;50.544;9.642;2023-01-19T03:18:40;13.87;;;8.90;;
20393;SDS011;10356;50.544;9.642;2023-01-19T03:21:10;19.10;;;10.23;;
20393;SDS011;10356;50.544;9.642;2023-01-19T03:23:40;20.03;;;10.07;;
20393;SDS011;10356;50.544;9.642;2023-01-19T03:26:10;19.93;;;9.80;;
20393;SDS011;10356;50.544;9.642;2023-01-19T03:28:41;20.47;;;10.30;;
20393;SDS011;10356;50.544;9.642;2023-01-19T03:31:13;19.50;;;11.03;;
20393;SDS011;10356;50.544;9.642;2023-01-19T03:33:42;23.50;;;10.83;;
20393;SDS011;10356;50.544;9.642;2023-01-19T03:36:14;17.40;;;9.77;;
20393;SDS011;10356;50.544;9.642;2023-01-19T03:38:44;18.63;;;10.00;;
20393;SDS011;10356;50.544;9.642;2023-01-19T03:41:12;17.10;;;10.03;;
20393;SDS011;10356;50.544;9.642;2023-01-19T03:43:43;19.40;;;11.37;;
20393;SDS011;10356;50.544;9.642;2023-01-19T03:46:12;23.93;;;11.17;;
20393;SDS011;10356;50.544;9.642;2023-01-19T03:48:41;22.20;;;10.80;;
20393;SDS011;10356;50.544;9.642;2023-01-19T03:51:08;20.67;;;10.83;;
20393;SDS011;10356;50.544;9.642;2023-01-19T03:53:36;18.10;;;10.40;;
20393;SDS011;10356;50.544;9.642;2023-01-19T03:56:02;18.40;;;10.73;;
20393;SDS011;10356;50.544;9.642;2023-01-19T03:58:30;20.23;;;11.67;;
20393;SDS011;10356;50.544;9.642;2023-01-19T04:00:57;21.60;;;11.70;;
20393;SDS011;10356;50.544;9.642;2023-01-19T04:03:24;25.20;;;12.50;;
20393;SDS011;10356;50.544;9.642;2023-01-19T04:05:50;25.93;;;11.97;;
20393;SDS011;10356;50.544;9.642;2023-01-19T04:08:17;21.97;;;12.77;;
20393;SDS011;10356;50.544;9.642;2023-01-19T04:10:43;23.20;;;12.97;;
20393;SDS011;10356;50.544;9.642;2023-01-19T04:13:10;25.03;;;12.90;;
20393;SDS011;10356;50.544;9.642;2023-01-19T04:15:36;20.17;;;11.67;;
20393;SDS011;10356;50.544;9.642;2023-01-19T04:18:04;26.73;;;13.40;;
20393;SDS011;10356;50.544;9.642;2023-01-19T04:20:31;24.87;;;13.27;;
20393;SDS011;10356;50.544;9.642;2023-01-19T04:22:58;20.63;;;11.70;;
20393;SDS011;10356;50.544;9.642;2023-01-19T04:25:25;27.60;;;13.43;;
20393;SDS011;10356;50.544;9.642;2023-01-19T04:27:52;21.57;;;12.43;;
20393;SDS011;10356;50.544;9.642;2023-01-19T04:30:19;24.53;;;14.33;;
20393;SDS011;10356;50.544;9.642;2023-01-19T04:32:46;22.87;;;12.83;;
20393;SDS011;10356;50.544;9.642;2023-01-19T04:35:14;25.43;;;13.70;;
20393;SDS011;10356;50.544;9.642;2023-01-19T04:37:41;26.70;;;14.67;;
20393;SDS011;10356;50.544;9.642;2023-01-19T04:40:09;21.83;;;13.20;;
20393;SDS011;10356;50.544;9.642;2023-01-19T04:42:36;25.23;;;14.00;;
20393;SDS011;10356;50.544;9.642;2023-01-19T04:45:03;22.13;;;12.73;;
20393;SDS011;10356;50.544;9.642;2023-01-19T04:47:30;23.50;;;13.00;;
20393;SDS011;10356;50.544;9.642;2023-01-19T04:49:56;23.63;;;13.40;;
20393;SDS011;10356;50.544;9.642;2023-01-19T04:52:24;25.10;;;13.37;;
20393;SDS011;10356;50.544;9.642;2023-01-19T04:54:50;28.10;;;14.17;;
20393;SDS011;10356;50.544;9.642;2023-01-19T04:57:17;26.23;;;14.43;;
20393;SDS011;10356;50.544;9.642;2023-01-19T04:59:43;25.63;;;15.33;;
20393;SDS011;10356;50.544;9.642;2023-01-19T05:02:10;28.60;;;15.20;;
20393;SDS011;10356;50.544;9.642;2023-01-19T05:04:36;26.10;;;14.33;;
20393;SDS011;10356;50.544;9.642;2023-01-19T05:07:03;26.43;;;14.77;;
20393;SDS011;10356;50.544;9.642;2023-01-19T05:09:30;29.73;;;16.03;;
20393;SDS011;10356;50.544;9.642;2023-01-19T05:11:57;28.43;;;15.40;;
20393;SDS011;10356;50.544;9.642;2023-01-19T05:14:23;27.43;;;16.00;;
20393;SDS011;10356;50.544;9.642;2023-01-19T05:16:50;29.67;;;16.27;;
20393;SDS011;10356;50.544;9.642;2023-01-19T05:19:16;29.37;;;16.50;;
20393;SDS011;10356;50.544;9.642;2023-01-19T05:21:43;25.93;;;15.37;;
20393;SDS011;10356;50.544;9.642;2023-01-19T05:24:09;29.50;;;16.13;;
20393;SDS011;10356;50.544;9.642;2023-01-19T05:26:37;29.50;;;15.37;;
20393;SDS011;10356;50.544;9.642;2023-01-19T05:29:04;28.77;;;16.17;;
20393;SDS011;10356;50.544;9.642;2023-01-19T05:31:30;24.27;;;14.43;;
20393;SDS011;10356;50.544;9.642;2023-01-19T05:33:57;27.50;;;14.57;;
20393;SDS011;10356;50.544;9.642;2023-01-19T05:36:23;27.73;;;16.30;;
20393;SDS011;10356;50.544;9.642;2023-01-19T05:38:50;25.97;;;15.53;;
20393;SDS011;10356;50.544;9.642;2023-01-19T05:41:16;29.00;;;15.10;;
20393;SDS011;10356;50.544;9.642;2023-01-19T05:43:44;28.27;;;14.67;;
20393;SDS011;10356;50.544;9.642;2023-01-19T05:46:10;24.27;;;14.67;;
20393;SDS011;10356;50.544;9.642;2023-01-19T05:48:37;24.97;;;14.87;;
20393;SDS011;10356;50.544;9.642;2023-01-19T05:51:04;25.47;;;14.67;;
20393;SDS011;10356;50.544;9.642;2023-01-19T05:53:30;25.43;;;15.13;;
20393;SDS011;10356;50.544;9.642;2023-01-19T05:56:00;25.67;;;13.67;;
20393;SDS011;10356;50.544;9.642;2023-01-19T05:58:27;25.70;;;14.40;;
20393;SDS011;10356;50.544;9.642;2023-01-19T06:00:55;24.23;;;13.53;;
20393;SDS011;10356;50.544;9.642;2023-01-19T06:03:22;27.13;;;14.83;;
20393;SDS011;10356;50.544;9.642;2023-01-19T06:05:48;26.87;;;17.50;;
20393;SDS011;10356;50.544;9.642;2023-01-19T06:08:14;31.27;;;19.87;;
20393;SDS011;10356;50.544;9.642;2023-01-19T06:10:41;26.83;;;16.53;;
20393;SDS011;10356;50.544;9.642;2023-01-19T06:13:07;29.03;;;17.67;;
20393;SDS011;10356;50.544;9.642;2023-01-19T06:15:35;23.30;;;15.67;;
20393;SDS011;10356;50.544;9.642;2023-01-19T06:18:03;27.07;;;15.00;;
20393;SDS011;10356;50.544;9.642;2023-01-19T06:20:29;24.63;;;14.47;;
20393;SDS011;10356;50.544;9.642;2023-01-19T06:22:56;27.97;;;15.27;;
20393;SDS011;10356;50.544;9.642;2023-01-19T06:25:22;28.90;;;15.13;;
20393;SDS011;10356;50.544;9.642;2023-01-19T06:27:50;27.50;;;14.77;;
20393;SDS011;10356;50.544;9.642;2023-01-19T06:30:16;36.03;;;19.27;;
20393;SDS011;10356;50.544;9.642;2023-01-19T06:32:43;27.40;;;15.20;;
20393;SDS011;10356;50.544;9.642;2023-01-19T06:35:11;23.83;;;14.23;;
20393;SDS011;10356;50.544;9.642;2023-01-19T06:37:38;51.37;;;22.33;;
20393;SDS011;10356;50.544;9.642;2023-01-19T06:40:05;38.60;;;18.80;;
20393;SDS011;10356;50.544;9.642;2023-01-19T06:42:33;27.73;;;16.33;;
20393;SDS011;10356;50.544;9.642;2023-01-19T06:44:59;24.47;;;15.50;;
20393;SDS011;10356;50.544;9.642;2023-01-19T06:47:26;27.17;;;16.07;;
20393;SDS011;10356;50.544;9.642;2023-01-19T06:49:52;24.80;;;15.43;;
20393;SDS011;10356;50.544;9.642;2023-01-19T06:52:20;25.87;;;16.20;;
20393;SDS011;10356;50.544;9.642;2023-01-19T06:54:46;25.77;;;15.80;;
20393;SDS011;10356;50.544;9.642;2023-01-19T06:57:13;27.03;;;15.60;;
20393;SDS011;10356;50.544;9.642;2023-01-19T06:59:39;23.60;;;15.00;;
20393;SDS011;10356;50.544;9.642;2023-01-19T07:02:07;23.17;;;14.27;;
20393;SDS011;10356;50.544;9.642;2023-01-19T07:04:35;25.03;;;15.63;;
20393;SDS011;10356;50.544;9.642;2023-01-19T07:07:01;23.47;;;13.47;;
20393;SDS011;10356;50.544;9.642;2023-01-19T07:09:29;25.50;;;14.97;;
20393;SDS011;10356;50.544;9.642;2023-01-19T07:11:55;24.87;;;13.73;;
20393;SDS011;10356;50.544;9.642;2023-01-19T07:14:22;22.03;;;13.80;;
20393;SDS011;10356;50.544;9.642;2023-01-19T07:16:49;29.67;;;17.47;;
20393;SDS011;10356;50.544;9.642;2023-01-19T07:19:16;22.10;;;14.17;;
20393;SDS011;10356;50.544;9.642;2023-01-19T07:21:42;21.60;;;13.70;;
20393;SDS011;10356;50.544;9.642;2023-01-19T07:24:09;23.03;;;14.00;;
20393;SDS011;10356;50.544;9.642;2023-01-19T07:26:36;22.13;;;14.07;;
20393;SDS011;10356;50.544;9.642;2023-01-19T07:29:03;21.80;;;13.80;;
20393;SDS011;10356;50.544;9.642;2023-01-19T07:31:29;20.73;;;13.73;;
20393;SDS011;10356;50.544;9.642;2023-01-19T07:33:56;23.03;;;13.63;;
20393;SDS011;10356;50.544;9.642;2023-01-19T07:36:23;21.40;;;13.57;;
20393;SDS011;10356;50.544;9.642;2023-01-19T07:38:49;22.30;;;13.67;;
20393;SDS011;10356;50.544;9.642;2023-01-19T07:41:15;19.77;;;12.80;;
20393;SDS011;10356;50.544;9.642;2023-01-19T07:43:43;21.93;;;13.43;;
20393;SDS011;10356;50.544;9.642;2023-01-19T07:46:10;23.73;;;14.37;;
20393;SDS011;10356;50.544;9.642;2023-01-19T07:48:36;22.83;;;13.53;;
20393;SDS011;10356;50.544;9.642;2023-01-19T07:51:03;21.37;;;13.47;;
20393;SDS011;10356;50.544;9.642;2023-01-19T07:53:32;24.47;;;14.70;;
20393;SDS011;10356;50.544;9.642;2023-01-19T07:55:59;25.63;;;13.87;;
20393;SDS011;10356;50.544;9.642;2023-01-19T07:58:25;19.07;;;12.63;;
20393;SDS011;10356;50.544;9.642;2023-01-19T08:00:53;20.87;;;12.50;;
20393;SDS011;10356;50.544;9.642;2023-01-19T08:03:20;20.90;;;12.83;;
20393;SDS011;10356;50.544;9.642;2023-01-19T08:05:48;19.83;;;11.67;;
20393;SDS011;10356;50.544;9.642;2023-01-19T08:08:15;19.37;;;11.87;;
20393;SDS011;10356;50.544;9.642;2023-01-19T08:10:42;19.73;;;11.67;;
20393;SDS011;10356;50.544;9.642;2023-01-19T08:13:09;22.97;;;12.37;;
20393;SDS011;10356;50.544;9.642;2023-01-19T08:15:35;17.80;;;11.80;;
20393;SDS011;10356;50.544;9.642;2023-01-19T08:18:03;18.73;;;11.70;;
20393;SDS011;10356;50.544;9.642;2023-01-19T08:20:31;61.27;;;28.60;;
20393;SDS011;10356;50.544;9.642;2023-01-19T08:22:57;16.67;;;11.03;;
20393;SDS011;10356;50.544;9.642;2023-01-19T08:25:25;20.73;;;13.80;;
20393;SDS011;10356;50.544;9.642;2023-01-19T08:27:56;14.63;;;10.20;;
20393;SDS011;10356;50.544;9.642;2023-01-19T08:30:23;16.20;;;9.97;;
20393;SDS011;10356;50.544;9.642;2023-01-19T08:32:51;14.73;;;10.33;;
20393;SDS011;10356;50.544;9.642;2023-01-19T08:35:19;18.20;;;11.83;;
20393;SDS011;10356;50.544;9.642;2023-01-19T08:37:46;18.57;;;11.33;;
20393;SDS011;10356;50.544;9.642;2023-01-19T08:40:13;12.73;;;9.30;;
20393;SDS011;10356;50.544;9.642;2023-01-19T08:42:39;15.07;;;9.23;;
20393;SDS011;10356;50.544;9.642;2023-01-19T08:45:06;13.60;;;8.63;;
20393;SDS011;10356;50.544;9.642;2023-01-19T08:47:34;12.73;;;8.83;;
20393;SDS011;10356;50.544;9.642;2023-01-19T08:50:00;15.60;;;8.50;;
20393;SDS011;10356;50.544;9.642;2023-01-19T08:52:28;11.90;;;8.00;;
20393;SDS011;10356;50.544;9.642;2023-01-19T08:54:54;14.07;;;7.83;;
20393;SDS011;10356;50.544;9.642;2023-01-19T08:57:21;12.00;;;7.63;;
20393;SDS011;10356;50.544;9.642;2023-01-19T08:59:47;11.77;;;7.77;;
20393;SDS011;10356;50.544;9.642;2023-01-19T09:02:14;12.00;;;7.93;;
20393;SDS011;10356;50.544;9.642;2023-01-19T09:04:40;13.57;;;8.20;;
20393;SDS011;10356;50.544;9.642;2023-01-19T09:07:07;12.37;;;7.90;;
20393;SDS011;10356;50.544;9.642;2023-01-19T09:09:34;13.87;;;8.07;;
20393;SDS011;10356;50.544;9.642;2023-01-19T09:12:03;14.70;;;8.83;;
20393;SDS011;10356;50.544;9.642;2023-01-19T09:14:30;14.77;;;8.47;;
20393;SDS011;10356;50.544;9.642;2023-01-19T09:16:56;12.93;;;8.50;;
20393;SDS011;10356;50.544;9.642;2023-01-19T09:19:23;12.70;;;8.60;;
20393;SDS011;10356;50.544;9.642;2023-01-19T09:21:51;13.73;;;8.60;;
20393;SDS011;10356;50.544;9.642;2023-01-19T09:24:18;15.60;;;8.60;;
20393;SDS011;10356;50.544;9.642;2023-01-19T09:26:46;15.27;;;8.47;;
20393;SDS011;10356;50.544;9.642;2023-01-19T09:29:13;16.10;;;8.50;;
20393;SDS011;10356;50.544;9.642;2023-01-19T09:31:39;15.40;;;9.10;;
20393;SDS011;10356;50.544;9.642;2023-01-19T09:34:05;14.23;;;9.10;;
20393;SDS011;10356;50.544;9.642;2023-01-19T09:36:32;13.73;;;8.33;;
20393;SDS011;10356;50.544;9.642;2023-01-19T09:39:00;12.63;;;8.47;;
20393;SDS011;10356;50.544;9.642;2023-01-19T09:41:27;13.27;;;8.43;;
20393;SDS011;10356;50.544;9.642;2023-01-19T09:43:56;12.47;;;8.27;;
20393;SDS011;10356;50.544;9.642;2023-01-19T09:46:26;12.93;;;8.73;;
20393;SDS011;10356;50.544;9.642;2023-01-19T09:48:59;12.87;;;8.47;;
20393;SDS011;10356;50.544;9.642;2023-01-19T09:51:32;13.43;;;9.20;;
20393;SDS011;10356;50.544;9.642;2023-01-19T09:54:04;10.77;;;8.00;;
20393;SDS011;10356;50.544;9.642;2023-01-19T09:56:37;11.20;;;7.97;;
20393;SDS011;10356;50.544;9.642;2023-01-19T09:59:12;12.80;;;8.57;;
20393;SDS011;10356;50.544;9.642;2023-01-19T10:01:45;13.73;;;8.23;;
20393;SDS011;10356;50.544;9.642;2023-01-19T10:04:31;11.33;;;7.60;;
20393;SDS011;10356;50.544;9.642;2023-01-19T10:07:04;13.70;;;7.90;;
20393;SDS011;10356;50.544;9.642;2023-01-19T10:09:36;12.27;;;7.67;;
20393;SDS011;10356;50.544;9.642;2023-01-19T10:12:13;11.53;;;7.90;;
20393;SDS011;10356;50.544;9.642;2023-01-19T10:14:49;11.50;;;8.20;;
20393;SDS011;10356;50.544;9.642;2023-01-19T10:17:23;16.07;;;10.30;;
20393;SDS011;10356;50.544;9.642;2023-01-19T10:20:02;12.80;;;8.73;;
20393;SDS011;10356;50.544;9.642;2023-01-19T10:22:36;12.70;;;8.50;;
20393;SDS011;10356;50.544;9.642;2023-01-19T10:25:03;10.93;;;7.77;;
20393;SDS011;10356;50.544;9.642;2023-01-19T10:27:40;11.27;;;7.77;;
20393;SDS011;10356;50.544;9.642;2023-01-19T10:30:12;12.30;;;7.80;;
20393;SDS011;10356;50.544;9.642;2023-01-19T10:32:45;12.57;;;8.77;;
20393;SDS011;10356;50.544;9.642;2023-01-19T10:35:13;10.77;;;7.77;;
20393;SDS011;10356;50.544;9.642;2023-01-19T10:37:45;9.97;;;7.13;;
20393;SDS011;10356;50.544;9.642;2023-01-19T10:40:14;12.27;;;8.00;;
20393;SDS011;10356;50.544;9.642;2023-01-19T10:42:47;10.93;;;7.93;;
20393;SDS011;10356;50.544;9.642;2023-01-19T10:45:16;9.87;;;6.73;;
20393;SDS011;10356;50.544;9.642;2023-01-19T10:47:44;11.83;;;8.57;;
20393;SDS011;10356;50.544;9.642;2023-01-19T10:50:22;12.63;;;7.67;;
20393;SDS011;10356;50.544;9.642;2023-01-19T10:52:50;12.37;;;8.60;;
20393;SDS011;10356;50.544;9.642;2023-01-19T10:55:22;11.00;;;7.30;;
20393;SDS011;10356;50.544;9.642;2023-01-19T10:57:50;10.87;;;6.53;;
20393;SDS011;10356;50.544;9.642;2023-01-19T11:02:58;14.07;;;8.60;;
20393;SDS011;10356;50.544;9.642;2023-01-19T11:05:26;11.73;;;7.57;;
20393;SDS011;10356;50.544;9.642;2023-01-19T11:07:53;11.00;;;7.40;;
20393;SDS011;10356;50.544;9.642;2023-01-19T11:10:20;11.37;;;7.33;;
20393;SDS011;10356;50.544;9.642;2023-01-19T11:15:41;11.10;;;7.83;;
20393;SDS011;10356;50.544;9.642;2023-01-19T11:18:16;11.93;;;7.90;;
20393;SDS011;10356;50.544;9.642;2023-01-19T11:20:49;13.40;;;8.17;;
20393;SDS011;10356;50.544;9.642;2023-01-19T11:23:21;14.83;;;9.23;;
20393;SDS011;10356;50.544;9.642;2023-01-19T11:25:51;13.10;;;8.90;;
20393;SDS011;10356;50.544;9.642;2023-01-19T11:28:20;18.20;;;11.63;;
20393;SDS011;10356;50.544;9.642;2023-01-19T11:30:54;11.83;;;8.93;;
20393;SDS011;10356;50.544;9.642;2023-01-19T11:33:22;12.20;;;8.63;;
20393;SDS011;10356;50.544;9.642;2023-01-19T11:35:49;16.27;;;8.73;;
20393;SDS011;10356;50.544;9.642;2023-01-19T11:38:19;13.13;;;9.63;;
20393;SDS011;10356;50.544;9.642;2023-01-19T11:40:50;13.97;;;9.97;;
20393;SDS011;10356;50.544;9.642;2023-01-19T11:43:20;16.20;;;11.80;;
20393;SDS011;10356;50.544;9.642;2023-01-19T11:45:48;26.47;;;15.93;;
20393;SDS011;10356;50.544;9.642;2023-01-19T11:48:17;12.77;;;9.33;;
20393;SDS011;10356;50.544;9.642;2023-01-19T11:50:50;16.77;;;8.97;;
20393;SDS011;10356;50.544;9.642;2023-01-19T11:53:19;15.10;;;9.40;;
20393;SDS011;10356;50.544;9.642;2023-01-19T11:55:50;24.60;;;13.33;;
20393;SDS011;10356;50.544;9.642;2023-01-19T11:58:20;14.33;;;9.63;;
20393;SDS011;10356;50.544;9.642;2023-01-19T12:00:48;14.30;;;9.10;;
20393;SDS011;10356;50.544;9.642;2023-01-19T12:03:22;14.23;;;9.00;;
20393;SDS011;10356;50.544;9.642;2023-01-19T12:05:55;14.23;;;9.33;;
20393;SDS011;10356;50.544;9.642;2023-01-19T12:08:27;12.83;;;8.57;;
20393;SDS011;10356;50.544;9.642;2023-01-19T12:10:57;16.03;;;9.73;;
20393;SDS011;10356;50.544;9.642;2023-01-19T12:13:26;13.63;;;9.27;;
20393;SDS011;10356;50.544;9.642;2023-01-19T12:15:56;14.57;;;9.40;;
20393;SDS011;10356;50.544;9.642;2023-01-19T12:18:28;12.97;;;8.20;;
20393;SDS011;10356;50.544;9.642;2023-01-19T12:20:58;10.93;;;8.13;;
20393;SDS011;10356;50.544;9.642;2023-01-19T12:23:28;14.50;;;9.30;;
20393;SDS011;10356;50.544;9.642;2023-01-19T12:26:06;11.77;;;8.63;;
20393;SDS011;10356;50.544;9.642;2023-01-19T12:28:47;33.60;;;14.97;;
20393;SDS011;10356;50.544;9.642;2023-01-19T12:31:16;32.83;;;18.07;;
20393;SDS011;10356;50.544;9.642;2023-01-19T12:33:46;37.77;;;18.53;;
20393;SDS011;10356;50.544;9.642;2023-01-19T12:39:00;19.17;;;13.47;;
20393;SDS011;10356;50.544;9.642;2023-01-19T12:41:28;24.30;;;14.37;;
20393;SDS011;10356;50.544;9.642;2023-01-19T12:46:46;17.20;;;11.20;;
20393;SDS011;10356;50.544;9.642;2023-01-19T12:49:21;15.63;;;10.57;;
20393;SDS011;10356;50.544;9.642;2023-01-19T12:51:53;13.53;;;9.07;;
20393;SDS011;10356;50.544;9.642;2023-01-19T12:54:36;17.73;;;13.50;;
20393;SDS011;10356;50.544;9.642;2023-01-19T12:57:08;17.77;;;10.93;;
20393;SDS011;10356;50.544;9.642;2023-01-19T12:59:44;19.60;;;15.00;;
20393;SDS011;10356;50.544;9.642;2023-01-19T13:08:24;12.13;;;9.53;;
20393;SDS011;10356;50.544;9.642;2023-01-19T13:16:58;11.63;;;8.43;;
20393;SDS011;10356;50.544;9.642;2023-01-19T13:25:39;11.17;;;8.80;;
20393;SDS011;10356;50.544;9.642;2023-01-19T13:28:11;11.83;;;8.60;;
20393;SDS011;10356;50.544;9.642;2023-01-19T13:30:44;12.30;;;9.37;;
20393;SDS011;10356;50.544;9.642;2023-01-19T13:33:19;17.43;;;12.23;;
20393;SDS011;10356;50.544;9.642;2023-01-19T13:35:50;11.43;;;8.53;;
20393;SDS011;10356;50.544;9.642;2023-01-19T13:38:20;11.40;;;8.60;;
20393;SDS011;10356;50.544;9.642;2023-01-19T13:40:49;10.73;;;8.17;;
20393;SDS011;10356;50.544;9.642;2023-01-19T13:43:18;11.97;;;8.90;;
20393;SDS011;10356;50.544;9.642;2023-01-19T13:45:49;11.37;;;8.97;;
20393;SDS011;10356;50.544;9.642;2023-01-19T13:48:17;12.07;;;9.27;;
20393;SDS011;10356;50.544;9.642;2023-01-19T13:50:55;11.27;;;8.17;;
20393;SDS011;10356;50.544;9.642;2023-01-19T13:53:26;12.30;;;8.30;;
20393;SDS011;10356;50.544;9.642;2023-01-19T13:56:08;12.23;;;9.33;;
20393;SDS011;10356;50.544;9.642;2023-01-19T13:58:42;14.23;;;11.47;;
20393;SDS011;10356;50.544;9.642;2023-01-19T14:01:18;13.73;;;11.03;;
20393;SDS011;10356;50.544;9.642;2023-01-19T14:03:45;11.13;;;8.60;;
20393;SDS011;10356;50.544;9.642;2023-01-19T14:06:20;11.00;;;8.93;;
20393;SDS011;10356;50.544;9.642;2023-01-19T14:11:42;9.47;;;7.37;;
20393;SDS011;10356;50.544;9.642;2023-01-19T14:14:25;11.90;;;9.23;;
20393;SDS011;10356;50.544;9.642;2023-01-19T14:16:53;10.53;;;8.30;;
20393;SDS011;10356;50.544;9.642;2023-01-19T14:19:19;10.03;;;7.80;;
20393;SDS011;10356;50.544;9.642;2023-01-19T14:21:55;10.57;;;7.77;;
20393;SDS011;10356;50.544;9.642;2023-01-19T14:24:23;10.23;;;8.23;;
20393;SDS011;10356;50.544;9.642;2023-01-19T14:27:01;10.93;;;7.70;;
20393;SDS011;10356;50.544;9.642;2023-01-19T14:29:34;10.90;;;8.40;;
20393;SDS011;10356;50.544;9.642;2023-01-19T14:32:09;12.67;;;10.63;;
20393;SDS011;10356;50.544;9.642;2023-01-19T14:34:39;12.10;;;9.47;;
20393;SDS011;10356;50.544;9.642;2023-01-19T14:37:20;9.47;;;7.47;;
20393;SDS011;10356;50.544;9.642;2023-01-19T14:39:50;13.03;;;8.77;;
20393;SDS011;10356;50.544;9.642;2023-01-19T14:42:22;11.77;;;8.93;;
20393;SDS011;10356;50.544;9.642;2023-01-19T14:44:52;12.90;;;10.33;;
20393;SDS011;10356;50.544;9.642;2023-01-19T14:47:25;13.93;;;10.63;;
20393;SDS011;10356;50.544;9.642;2023-01-19T14:49:54;16.73;;;10.17;;
20393;SDS011;10356;50.544;9.642;2023-01-19T14:52:24;15.37;;;10.83;;
20393;SDS011;10356;50.544;9.642;2023-01-19T14:54:53;15.77;;;12.33;;
20393;SDS011;10356;50.544;9.642;2023-01-19T14:57:22;11.37;;;8.77;;
20393;SDS011;10356;50.544;9.642;2023-01-19T14:59:49;9.03;;;7.63;;
20393;SDS011;10356;50.544;9.642;2023-01-19T15:02:16;9.93;;;7.87;;
20393;SDS011;10356;50.544;9.642;2023-01-19T15:04:43;9.63;;;7.83;;
20393;SDS011;10356;50.544;9.642;2023-01-19T15:07:12;10.90;;;8.50;;
20393;SDS011;10356;50.544;9.642;2023-01-19T15:09:42;8.93;;;7.00;;
20393;SDS011;10356;50.544;9.642;2023-01-19T15:12:09;9.83;;;7.50;;
20393;SDS011;10356;50.544;9.642;2023-01-19T15:14:39;8.47;;;6.67;;
20393;SDS011;10356;50.544;9.642;2023-01-19T15:17:08;10.00;;;8.00;;
20393;SDS011;10356;50.544;9.642;2023-01-19T15:19:40;9.20;;;7.47;;